createdAt,value
2019-01-23T00:00:42.155Z,9.20
2019-01-23T00:03:09.332Z,9.30
2019-01-23T00:05:36.972Z,9.20
2019-01-23T00:08:04.749Z,9.40
2019-01-23T00:10:31.953Z,9.30
2019-01-23T00:12:59.035Z,9.40
2019-01-23T00:15:26.253Z,9.40
2019-01-23T00:17:53.460Z,9.30
2019-01-23T00:20:20.534Z,9.00
2019-01-23T00:22:47.739Z,8.80
2019-01-23T00:25:14.859Z,8.60
2019-01-23T00:27:42.012Z,8.70
2019-01-23T00:30:08.726Z,8.90
2019-01-23T00:32:35.905Z,9.20
2019-01-23T00:35:02.622Z,9.50
2019-01-23T00:37:29.690Z,9.70
2019-01-23T00:39:56.869Z,9.60
2019-01-23T00:42:23.993Z,9.60
2019-01-23T00:44:51.035Z,9.60
2019-01-23T00:47:17.756Z,9.40
2019-01-23T00:49:44.504Z,9.10
2019-01-23T00:52:11.669Z,8.80
2019-01-23T00:54:38.323Z,8.80
2019-01-23T00:57:05.455Z,8.90
2019-01-23T00:59:32.607Z,9.20
2019-01-23T01:01:59.255Z,9.50
2019-01-23T01:04:26.391Z,9.60
2019-01-23T01:06:53.162Z,9.60
2019-01-23T01:09:19.814Z,9.50
2019-01-23T01:11:46.948Z,9.50
2019-01-23T01:14:14.084Z,9.40
2019-01-23T01:16:41.258Z,9.00
2019-01-23T01:19:08.350Z,9.10
2019-01-23T01:21:35.419Z,9.20
2019-01-23T01:24:02.466Z,9.30
2019-01-23T01:26:29.191Z,9.40
2019-01-23T01:28:56.285Z,9.50
2019-01-23T01:31:23.407Z,9.80
2019-01-23T01:33:50.562Z,9.30
2019-01-23T01:36:17.241Z,9.30
2019-01-23T01:38:44.223Z,9.30
2019-01-23T01:41:11.271Z,9.10
2019-01-23T01:43:38.404Z,8.90
2019-01-23T01:46:05.599Z,8.90
2019-01-23T01:48:32.321Z,9.00
2019-01-23T01:50:59.029Z,9.20
2019-01-23T01:53:26.256Z,9.40
2019-01-23T01:55:52.966Z,9.40
2019-01-23T01:58:20.148Z,9.20
2019-01-23T02:00:46.932Z,9.20
2019-01-23T02:03:15.606Z,9.30
2019-01-23T02:05:42.386Z,9.40
2019-01-23T02:08:09.128Z,9.00
2019-01-23T02:10:35.846Z,8.80
2019-01-23T02:13:02.516Z,9.10
2019-01-23T02:15:29.322Z,9.10
2019-01-23T02:17:56.405Z,9.00
2019-01-23T02:20:23.430Z,9.00
2019-01-23T02:22:50.174Z,9.20
2019-01-23T02:25:17.214Z,9.40
2019-01-23T02:27:44.698Z,9.40
2019-01-23T02:30:11.414Z,9.30
2019-01-23T02:32:38.479Z,9.30
2019-01-23T02:35:05.205Z,9.20
2019-01-23T02:37:32.376Z,9.30
2019-01-23T02:39:59.430Z,9.30
2019-01-23T02:42:26.471Z,9.40
2019-01-23T02:44:54.132Z,9.40
2019-01-23T02:47:21.157Z,9.40
2019-01-23T02:49:47.859Z,9.40
2019-01-23T02:52:14.655Z,8.80
2019-01-23T02:54:41.467Z,8.70
2019-01-23T02:57:08.546Z,8.80
2019-01-23T02:59:35.709Z,8.80
2019-01-23T03:02:02.358Z,8.80
2019-01-23T03:04:29.494Z,8.70
2019-01-23T03:06:56.616Z,8.70
2019-01-23T03:09:23.694Z,8.40
2019-01-23T03:11:50.715Z,8.30
2019-01-23T03:14:17.916Z,8.60
2019-01-23T03:16:44.911Z,8.70
2019-01-23T03:19:11.610Z,8.80
2019-01-23T03:21:39.077Z,9.00
2019-01-23T03:24:06.217Z,9.00
2019-01-23T03:26:33.365Z,9.00
2019-01-23T03:29:00.566Z,8.90
2019-01-23T03:31:27.790Z,8.60
2019-01-23T03:33:54.440Z,8.30
2019-01-23T03:36:21.151Z,8.50
2019-01-23T03:38:47.923Z,8.50
2019-01-23T03:41:14.563Z,8.60
2019-01-23T03:43:41.640Z,8.70
2019-01-23T03:46:08.818Z,8.60
2019-01-23T03:48:35.497Z,8.80
2019-01-23T03:51:02.176Z,9.00
2019-01-23T03:53:28.973Z,9.00
2019-01-23T03:55:56.061Z,9.10
2019-01-23T03:58:22.714Z,9.10
2019-01-23T04:00:49.953Z,9.10
2019-01-23T04:03:17.767Z,9.20
2019-01-23T04:05:45.716Z,9.10
2019-01-23T04:08:12.455Z,8.90
2019-01-23T04:10:39.585Z,8.30
2019-01-23T04:13:06.601Z,8.20
2019-01-23T04:15:33.752Z,8.40
2019-01-23T04:18:00.820Z,8.90
2019-01-23T04:20:27.872Z,8.90
2019-01-23T04:22:55.023Z,8.70
2019-01-23T04:25:22.047Z,8.60
2019-01-23T04:27:50.689Z,8.90
2019-01-23T04:30:17.800Z,9.10
2019-01-23T04:32:44.827Z,9.10
2019-01-23T04:35:11.487Z,9.10
2019-01-23T04:37:38.620Z,9.10
2019-01-23T04:40:05.280Z,9.10
2019-01-23T04:42:32.021Z,8.80
2019-01-23T04:44:58.725Z,9.00
2019-01-23T04:47:25.817Z,8.80
2019-01-23T04:49:52.856Z,8.90
2019-01-23T04:52:19.982Z,9.10
2019-01-23T04:54:46.644Z,9.50
2019-01-23T04:57:13.712Z,9.60
2019-01-23T04:59:46.786Z,9.10
2019-01-23T05:02:09.213Z,8.90
2019-01-23T05:04:35.855Z,9.10
2019-01-23T05:07:03.034Z,9.20
2019-01-23T05:09:30.092Z,9.30
2019-01-23T05:11:56.742Z,9.40
2019-01-23T05:14:23.844Z,9.50
2019-01-23T05:16:51.017Z,9.50
2019-01-23T05:19:18.038Z,9.30
2019-01-23T05:21:44.734Z,9.20
2019-01-23T05:24:11.459Z,9.30
2019-01-23T05:26:38.565Z,9.50
2019-01-23T05:29:05.602Z,9.30
2019-01-23T05:31:32.296Z,9.30
2019-01-23T05:33:59.401Z,9.10
2019-01-23T05:36:26.117Z,9.10
2019-01-23T05:38:53.295Z,9.00
2019-01-23T05:41:20.366Z,8.80
2019-01-23T05:43:47.516Z,8.90
2019-01-23T05:46:14.675Z,8.80
2019-01-23T05:48:41.373Z,8.70
2019-01-23T05:51:08.436Z,8.90
2019-01-23T05:53:36.181Z,9.00
2019-01-23T05:56:03.255Z,9.10
2019-01-23T05:58:29.894Z,9.20
2019-01-23T06:00:57.935Z,9.50
2019-01-23T06:03:24.601Z,9.40
2019-01-23T06:05:51.747Z,9.50
2019-01-23T06:08:21.107Z,9.60
2019-01-23T06:10:47.299Z,9.20
2019-01-23T06:13:16.918Z,9.00
2019-01-23T06:15:43.916Z,8.60
2019-01-23T06:18:10.575Z,8.90
2019-01-23T06:20:37.717Z,9.00
2019-01-23T06:23:04.867Z,9.20
2019-01-23T06:25:32.039Z,9.30
2019-01-23T06:27:59.063Z,9.20
2019-01-23T06:30:26.117Z,9.10
2019-01-23T06:32:53.247Z,9.00
2019-01-23T06:35:20.314Z,9.10
2019-01-23T06:37:46.972Z,8.90
2019-01-23T06:40:14.105Z,8.70
2019-01-23T06:42:40.749Z,8.80
2019-01-23T06:45:07.404Z,9.10
2019-01-23T06:47:34.659Z,9.00
2019-01-23T06:50:01.330Z,9.00
2019-01-23T06:52:28.041Z,9.20
2019-01-23T06:54:54.779Z,9.50
2019-01-23T06:57:21.460Z,9.60
2019-01-23T06:59:48.540Z,9.30
2019-01-23T07:02:15.690Z,9.00
2019-01-23T07:04:42.365Z,9.00
2019-01-23T07:07:09.481Z,9.00
2019-01-23T07:09:36.159Z,9.00
2019-01-23T07:12:03.262Z,9.00
2019-01-23T07:14:30.039Z,9.00
2019-01-23T07:16:56.682Z,8.70
2019-01-23T07:19:23.804Z,8.30
2019-01-23T07:21:50.962Z,8.60
2019-01-23T07:24:18.108Z,8.70
2019-01-23T07:26:45.115Z,8.90
2019-01-23T07:29:12.289Z,9.20
2019-01-23T07:31:39.358Z,9.60
2019-01-23T07:34:06.067Z,9.80
2019-01-23T07:36:33.233Z,10.10
2019-01-23T07:38:59.953Z,9.90
2019-01-23T07:41:26.669Z,9.70
2019-01-23T07:43:53.418Z,9.70
2019-01-23T07:46:20.128Z,9.70
2019-01-23T07:48:47.234Z,9.80
2019-01-23T07:51:14.287Z,9.90
2019-01-23T07:53:41.466Z,9.80
2019-01-23T07:56:08.139Z,9.70
2019-01-23T07:58:34.803Z,9.70
2019-01-23T08:01:01.587Z,9.60
2019-01-23T08:03:28.597Z,9.70
2019-01-23T08:05:55.638Z,9.80
2019-01-23T08:08:22.350Z,9.90
2019-01-23T08:10:49.077Z,9.80
2019-01-23T08:13:16.179Z,9.90
2019-01-23T08:15:43.432Z,10.20
2019-01-23T08:18:10.490Z,10.40
2019-01-23T08:20:37.563Z,10.50
2019-01-23T08:23:04.263Z,10.70
2019-01-23T08:25:30.988Z,10.90
2019-01-23T08:27:57.664Z,10.80
2019-01-23T08:30:24.410Z,10.50
2019-01-23T08:32:51.110Z,10.20
2019-01-23T08:35:18.104Z,9.90
2019-01-23T08:37:45.109Z,9.80
2019-01-23T08:40:11.830Z,9.60
2019-01-23T08:42:38.581Z,9.20
2019-01-23T08:45:05.729Z,9.50
2019-01-23T08:47:32.800Z,9.60
2019-01-23T08:49:59.936Z,9.70
2019-01-23T08:52:27.028Z,10.00
2019-01-23T08:54:53.675Z,10.00
2019-01-23T08:57:20.418Z,10.00
2019-01-23T08:59:47.135Z,10.20
2019-01-23T09:02:14.141Z,10.40
2019-01-23T09:04:40.801Z,10.50
2019-01-23T09:07:07.858Z,10.60
2019-01-23T09:09:34.588Z,10.50
2019-01-23T09:12:01.352Z,10.40
2019-01-23T09:14:28.496Z,10.60
2019-01-23T09:16:55.227Z,10.60
2019-01-23T09:19:21.942Z,10.60
2019-01-23T09:21:49.151Z,10.70
2019-01-23T09:24:16.275Z,11.10
2019-01-23T09:26:43.452Z,11.30
2019-01-23T09:29:10.200Z,11.20
2019-01-23T09:31:37.326Z,11.10
2019-01-23T09:34:04.016Z,11.10
2019-01-23T09:36:31.158Z,11.30
2019-01-23T09:38:58.255Z,11.40
2019-01-23T09:41:25.446Z,11.30
2019-01-23T09:43:52.425Z,11.20
2019-01-23T09:46:19.494Z,11.20
2019-01-23T09:48:46.651Z,11.30
2019-01-23T09:51:13.722Z,11.40
2019-01-23T09:53:40.399Z,11.30
2019-01-23T09:56:07.503Z,11.50
2019-01-23T09:58:34.328Z,11.20
2019-01-23T10:01:01.031Z,11.00
2019-01-23T10:03:28.112Z,10.60
2019-01-23T10:05:55.143Z,10.50
2019-01-23T10:08:21.883Z,10.70
2019-01-23T10:10:48.957Z,11.00
2019-01-23T10:13:16.052Z,11.10
2019-01-23T10:15:46.542Z,11.30
2019-01-23T10:18:13.360Z,11.30
2019-01-23T10:20:40.440Z,11.20
2019-01-23T10:23:07.227Z,10.90
2019-01-23T10:25:33.922Z,10.40
2019-01-23T10:28:01.052Z,10.30
2019-01-23T10:30:27.829Z,10.40
2019-01-23T10:32:54.518Z,10.40
2019-01-23T10:35:21.579Z,10.70
2019-01-23T10:37:48.752Z,10.90
2019-01-23T10:40:15.783Z,11.30
2019-01-23T10:42:42.928Z,11.50
2019-01-23T10:45:10.105Z,11.70
2019-01-23T10:47:36.835Z,11.40
2019-01-23T10:50:03.549Z,10.90
2019-01-23T10:52:30.200Z,10.60
2019-01-23T10:54:59.069Z,10.80
2019-01-23T10:57:26.445Z,11.20
2019-01-23T10:59:53.613Z,11.30
2019-01-23T11:02:20.744Z,11.30
2019-01-23T11:04:47.391Z,11.50
2019-01-23T11:07:14.162Z,11.70
2019-01-23T11:09:41.276Z,11.80
2019-01-23T11:12:07.926Z,11.80
2019-01-23T11:14:34.653Z,11.90
2019-01-23T11:17:01.325Z,12.00
2019-01-23T11:19:27.979Z,11.70
2019-01-23T11:21:54.821Z,11.40
2019-01-23T11:24:21.917Z,11.10
2019-01-23T11:26:48.642Z,11.30
2019-01-23T11:29:15.366Z,11.40
2019-01-23T11:31:42.018Z,11.40
2019-01-23T11:34:09.174Z,11.50
2019-01-23T11:36:36.215Z,11.60
2019-01-23T11:39:03.289Z,11.60
2019-01-23T11:41:30.445Z,11.50
2019-01-23T11:43:57.570Z,11.50
2019-01-23T11:46:24.235Z,11.70
2019-01-23T11:48:50.961Z,11.60
2019-01-23T11:51:18.115Z,11.60
2019-01-23T11:53:45.164Z,11.60
2019-01-23T11:56:12.211Z,11.80
2019-01-23T11:58:39.359Z,11.50
2019-01-23T12:01:06.046Z,11.40
2019-01-23T12:03:33.154Z,11.60
2019-01-23T12:06:00.307Z,11.80
2019-01-23T12:08:27.019Z,11.80
2019-01-23T12:10:54.095Z,12.00
2019-01-23T12:13:21.242Z,12.00
2019-01-23T12:15:48.308Z,12.00
2019-01-23T12:18:14.962Z,12.00
2019-01-23T12:20:42.074Z,12.00
2019-01-23T12:23:09.126Z,12.20
2019-01-23T12:25:35.816Z,12.20
2019-01-23T12:28:03.061Z,12.30
2019-01-23T12:30:29.782Z,12.20
2019-01-23T12:32:56.931Z,12.30
2019-01-23T12:35:24.037Z,12.30
2019-01-23T12:37:51.208Z,12.20
2019-01-23T12:40:18.362Z,12.00
2019-01-23T12:42:45.095Z,11.80
2019-01-23T12:45:11.789Z,11.50
2019-01-23T12:47:38.908Z,11.40
2019-01-23T12:50:06.066Z,11.20
2019-01-23T12:52:32.712Z,11.20
2019-01-23T12:54:59.414Z,11.20
2019-01-23T12:57:26.122Z,11.20
2019-01-23T12:59:52.817Z,11.20
2019-01-23T13:02:19.509Z,11.10
2019-01-23T13:04:46.257Z,11.20
2019-01-23T13:07:13.357Z,11.40
2019-01-23T13:09:40.047Z,11.60
2019-01-23T13:12:06.843Z,11.70
2019-01-23T13:14:33.521Z,11.60
2019-01-23T13:17:00.595Z,11.30
2019-01-23T13:19:27.744Z,11.30
2019-01-23T13:21:54.398Z,11.40
2019-01-23T13:24:21.128Z,11.50
2019-01-23T13:26:47.840Z,11.70
2019-01-23T13:29:14.994Z,11.90
2019-01-23T13:31:41.654Z,12.00
2019-01-23T13:34:08.384Z,12.10
2019-01-23T13:36:35.419Z,12.10
2019-01-23T13:39:02.470Z,11.80
2019-01-23T13:41:29.210Z,11.90
2019-01-23T13:43:56.409Z,11.90
2019-01-23T13:46:23.565Z,11.70
2019-01-23T13:48:50.279Z,11.80
2019-01-23T13:51:16.930Z,12.10
2019-01-23T13:53:44.063Z,12.30
2019-01-23T13:56:10.724Z,12.30
2019-01-23T13:58:42.182Z,12.20
2019-01-23T14:01:08.972Z,12.10
2019-01-23T14:03:35.615Z,12.10
2019-01-23T14:06:02.335Z,11.90
2019-01-23T14:08:29.457Z,11.90
2019-01-23T14:10:56.164Z,12.00
2019-01-23T14:13:23.324Z,12.30
2019-01-23T14:15:50.452Z,12.40
2019-01-23T14:18:17.510Z,12.50
2019-01-23T14:20:44.233Z,12.50
2019-01-23T14:23:11.395Z,12.50
2019-01-23T14:25:38.568Z,12.60
2019-01-23T14:28:05.599Z,12.40
2019-01-23T14:30:33.061Z,12.30
2019-01-23T14:33:00.102Z,12.40
2019-01-23T14:35:26.831Z,12.40
2019-01-23T14:38:00.363Z,12.50
2019-01-23T14:40:22.782Z,12.70
2019-01-23T14:42:49.956Z,12.60
2019-01-23T14:45:17.179Z,12.30
2019-01-23T14:47:44.038Z,11.90
2019-01-23T14:50:11.201Z,11.60
2019-01-23T14:52:37.984Z,11.40
2019-01-23T14:55:05.093Z,11.30
2019-01-23T14:57:32.095Z,11.60
2019-01-23T14:59:59.273Z,11.70
2019-01-23T15:02:26.490Z,11.70
2019-01-23T15:04:53.773Z,11.80
2019-01-23T15:07:20.923Z,11.80
2019-01-23T15:09:47.970Z,11.70
2019-01-23T15:12:14.704Z,11.60
2019-01-23T15:14:41.755Z,11.80
2019-01-23T15:17:08.905Z,11.90
2019-01-23T15:19:36.066Z,12.00
2019-01-23T15:22:03.107Z,12.10
2019-01-23T15:24:30.153Z,11.90
2019-01-23T15:26:56.940Z,12.10
2019-01-23T15:29:24.043Z,12.20
2019-01-23T15:31:51.148Z,12.10
2019-01-23T15:34:17.912Z,12.00
2019-01-23T15:36:45.010Z,12.10
2019-01-23T15:39:11.658Z,12.20
2019-01-23T15:41:38.771Z,12.20
2019-01-23T15:44:05.568Z,12.10
2019-01-23T15:46:32.643Z,12.30
2019-01-23T15:48:59.710Z,12.60
2019-01-23T15:51:26.481Z,12.60
2019-01-23T15:53:53.171Z,12.20
2019-01-23T15:56:20.241Z,12.00
2019-01-23T15:58:46.933Z,11.70
2019-01-23T16:01:14.141Z,11.90
2019-01-23T16:03:41.321Z,12.10
2019-01-23T16:06:08.614Z,12.20
2019-01-23T16:08:35.808Z,12.40
2019-01-23T16:11:02.487Z,12.50
2019-01-23T16:13:29.708Z,12.50
2019-01-23T16:15:56.419Z,12.50
2019-01-23T16:18:23.466Z,12.70
2019-01-23T16:20:50.619Z,12.40
2019-01-23T16:23:18.131Z,12.40
2019-01-23T16:25:44.815Z,12.50
2019-01-23T16:28:12.436Z,12.60
2019-01-23T16:30:39.517Z,12.60
2019-01-23T16:33:06.158Z,12.70
2019-01-23T16:35:38.578Z,12.60
2019-01-23T16:38:01.688Z,12.50
2019-01-23T16:40:28.335Z,12.50
2019-01-23T16:42:55.487Z,12.40
2019-01-23T16:45:22.138Z,12.40
2019-01-23T16:47:49.272Z,12.40
2019-01-23T16:50:16.454Z,12.10
2019-01-23T16:52:43.091Z,11.60
2019-01-23T16:55:09.827Z,11.30
2019-01-23T16:57:36.925Z,11.00
2019-01-23T17:00:04.015Z,10.90
2019-01-23T17:02:30.997Z,11.10
2019-01-23T17:04:58.222Z,11.30
2019-01-23T17:07:25.345Z,11.50
2019-01-23T17:09:52.513Z,11.40
2019-01-23T17:12:19.173Z,11.50
2019-01-23T17:14:46.257Z,11.40
2019-01-23T17:17:13.344Z,11.20
2019-01-23T17:19:40.383Z,11.30
2019-01-23T17:22:07.564Z,11.40
2019-01-23T17:24:34.714Z,11.50
2019-01-23T17:27:01.855Z,11.70
2019-01-23T17:29:30.806Z,12.00
2019-01-23T17:31:57.368Z,12.00
2019-01-23T17:34:24.052Z,12.10
2019-01-23T17:36:50.798Z,11.80
2019-01-23T17:39:17.998Z,11.90
2019-01-23T17:41:45.062Z,12.20
2019-01-23T17:44:12.186Z,12.40
2019-01-23T17:46:39.232Z,12.60
2019-01-23T17:49:06.038Z,12.70
2019-01-23T17:51:33.152Z,12.50
2019-01-23T17:54:00.278Z,12.30
2019-01-23T17:56:27.422Z,12.10
2019-01-23T17:58:54.147Z,12.30
2019-01-23T18:01:21.234Z,12.10
2019-01-23T18:03:48.432Z,12.00
2019-01-23T18:06:15.221Z,12.10
2019-01-23T18:08:48.117Z,12.20
2019-01-23T18:11:10.692Z,12.10
2019-01-23T18:13:37.348Z,12.10
2019-01-23T18:16:05.990Z,12.00
2019-01-23T18:18:32.685Z,11.90
2019-01-23T18:20:59.984Z,11.30
2019-01-23T18:23:29.223Z,11.30
2019-01-23T18:25:56.149Z,11.40
2019-01-23T18:28:23.252Z,11.50
2019-01-23T18:30:50.471Z,11.60
2019-01-23T18:33:17.212Z,11.80
2019-01-23T18:35:44.904Z,12.00
2019-01-23T18:38:12.368Z,12.00
2019-01-23T18:40:39.079Z,12.00
2019-01-23T18:43:06.171Z,11.80
2019-01-23T18:45:34.331Z,11.90
2019-01-23T18:48:01.348Z,12.00
2019-01-23T18:50:28.500Z,11.90
2019-01-23T18:52:55.190Z,12.00
2019-01-23T18:55:22.361Z,12.00
2019-01-23T18:57:49.524Z,12.00
2019-01-23T19:00:16.206Z,11.90
2019-01-23T19:02:43.314Z,11.90
2019-01-23T19:05:10.817Z,11.90
2019-01-23T19:07:37.880Z,11.90
2019-01-23T19:10:04.518Z,11.80
2019-01-23T19:12:31.643Z,11.80
2019-01-23T19:14:58.757Z,11.90
2019-01-23T19:17:25.444Z,12.00
2019-01-23T19:19:52.198Z,12.20
2019-01-23T19:22:19.332Z,12.20
2019-01-23T19:24:46.378Z,12.10
2019-01-23T19:27:13.522Z,12.00
2019-01-23T19:29:40.209Z,11.70
2019-01-23T19:32:07.514Z,11.60
2019-01-23T19:34:34.669Z,11.50
2019-01-23T19:37:01.726Z,11.70
2019-01-23T19:39:28.420Z,11.60
2019-01-23T19:41:55.154Z,11.60
2019-01-23T19:44:22.345Z,11.70
2019-01-23T19:46:49.041Z,11.70
2019-01-23T19:49:16.287Z,11.70
2019-01-23T19:51:43.575Z,11.70
2019-01-23T19:54:10.284Z,11.40
2019-01-23T19:56:37.006Z,11.30
2019-01-23T19:59:03.743Z,11.40
2019-01-23T20:01:30.419Z,11.70
2019-01-23T20:03:57.080Z,11.60
2019-01-23T20:06:23.818Z,11.60
2019-01-23T20:08:50.544Z,11.60
2019-01-23T20:11:17.300Z,11.50
2019-01-23T20:13:43.948Z,11.60
2019-01-23T20:16:10.641Z,11.60
2019-01-23T20:18:37.387Z,11.80
2019-01-23T20:21:04.110Z,11.70
2019-01-23T20:23:30.821Z,11.80
2019-01-23T20:25:57.945Z,11.90
2019-01-23T20:28:24.646Z,11.90
2019-01-23T20:30:51.746Z,11.80
2019-01-23T20:33:18.909Z,11.80
2019-01-23T20:35:45.591Z,11.90
2019-01-23T20:38:12.777Z,11.80
2019-01-23T20:40:39.944Z,11.70
2019-01-23T20:43:06.673Z,11.50
2019-01-23T20:45:33.465Z,11.30
2019-01-23T20:48:00.550Z,11.30
2019-01-23T20:50:28.017Z,11.40
2019-01-23T20:52:54.947Z,11.20
2019-01-23T20:55:21.727Z,11.10
2019-01-23T20:57:55.497Z,11.00
2019-01-23T21:00:22.699Z,11.10
2019-01-23T21:02:49.810Z,11.10
2019-01-23T21:05:16.534Z,11.20
2019-01-23T21:07:44.031Z,10.90
2019-01-23T21:10:10.847Z,10.70
2019-01-23T21:12:37.898Z,10.80
2019-01-23T21:15:05.169Z,10.90
2019-01-23T21:17:31.897Z,11.20
2019-01-23T21:20:02.844Z,11.40
2019-01-23T21:22:29.543Z,11.40
2019-01-23T21:24:56.863Z,11.50
2019-01-23T21:27:23.698Z,11.70
2019-01-23T21:29:50.838Z,11.70
2019-01-23T21:32:18.312Z,11.60
2019-01-23T21:34:45.491Z,11.50
2019-01-23T21:37:12.681Z,11.30
2019-01-23T21:39:39.747Z,11.30
2019-01-23T21:42:06.399Z,11.40
2019-01-23T21:44:33.124Z,11.40
2019-01-23T21:47:00.250Z,11.40
2019-01-23T21:49:29.767Z,11.50
2019-01-23T21:52:01.036Z,11.60
2019-01-23T21:54:29.631Z,11.70
2019-01-23T21:57:01.971Z,11.70
2019-01-23T21:59:26.489Z,11.60
2019-01-23T22:01:53.616Z,11.50
2019-01-23T22:04:21.462Z,11.60
2019-01-23T22:06:48.664Z,11.70
2019-01-23T22:09:16.446Z,11.80
2019-01-23T22:11:43.954Z,11.90
2019-01-23T22:14:11.302Z,11.90
2019-01-23T22:16:38.466Z,11.80
2019-01-23T22:19:05.183Z,11.60
2019-01-23T22:21:32.743Z,11.40
2019-01-23T22:23:59.998Z,10.90
2019-01-23T22:26:27.047Z,10.80
2019-01-23T22:28:53.709Z,10.80
2019-01-23T22:31:20.854Z,10.90
2019-01-23T22:33:48.029Z,11.00
2019-01-23T22:36:14.737Z,10.80
2019-01-23T22:38:41.493Z,10.80
2019-01-23T22:41:08.614Z,10.70
2019-01-23T22:43:35.355Z,10.80
2019-01-23T22:46:02.407Z,10.80
2019-01-23T22:48:29.479Z,10.50
2019-01-23T22:50:56.624Z,9.90
2019-01-23T22:53:23.782Z,9.90
2019-01-23T22:55:50.928Z,10.20
2019-01-23T22:58:17.953Z,10.40
2019-01-23T23:00:45.143Z,10.30
2019-01-23T23:03:11.857Z,10.60
2019-01-23T23:05:39.008Z,10.80
2019-01-23T23:08:06.162Z,10.80
2019-01-23T23:10:32.882Z,10.40
2019-01-23T23:12:59.606Z,10.40
2019-01-23T23:15:26.683Z,10.60
2019-01-23T23:17:53.872Z,11.00
2019-01-23T23:20:20.583Z,11.30
2019-01-23T23:22:47.742Z,11.60
2019-01-23T23:25:14.397Z,11.60
2019-01-23T23:27:41.142Z,11.50
2019-01-23T23:30:07.859Z,11.60
2019-01-23T23:32:35.035Z,11.70
2019-01-23T23:35:02.154Z,11.60
2019-01-23T23:37:28.803Z,11.40
2019-01-23T23:39:55.922Z,11.30
2019-01-23T23:42:23.121Z,11.30
2019-01-23T23:44:50.241Z,11.30
2019-01-23T23:47:17.387Z,11.40
2019-01-23T23:49:44.043Z,11.40
2019-01-23T23:52:11.159Z,11.40
2019-01-23T23:54:39.016Z,11.20
2019-01-23T23:57:06.704Z,11.20
2019-01-23T23:59:34.518Z,11.10
